Time;durP1;ratioP1;P1;durP2;ratioP2;P2;SDS_P1;SDS_P2;PMS_P1;PMS_P2;Temp;Humidity;BMP_temperature;BMP_pressure;BME280_temperature;BME280_humidity;BME280_pressure;Samples;Min_cycle;Max_cycle;Signal;HPM_P1;HPM_P2
2021/01/11 00:01:10;;;;;;;14.07;9.00;;;5.50;99.90;;;;;;5089981;28;20198;-76
2021/01/11 00:03:36;;;;;;;12.57;9.32;;;5.50;99.90;;;;;;5071870;28;20213;-76
2021/01/11 00:06:04;;;;;;;12.85;9.05;;;5.50;99.90;;;;;;5079829;28;20284;-76
2021/01/11 00:08:30;;;;;;;15.73;9.85;;;5.50;99.90;;;;;;5072188;28;20523;-76
2021/01/11 00:10:56;;;;;;;10.85;9.15;;;5.40;99.90;;;;;;5071828;28;20508;-76
2021/01/11 00:13:22;;;;;;;14.48;9.45;;;5.50;99.90;;;;;;5080819;28;20622;-76
2021/01/11 00:15:49;;;;;;;15.90;9.50;;;5.50;99.90;;;;;;5085611;28;20198;-76
2021/01/11 00:18:15;;;;;;;12.05;7.95;;;5.50;99.90;;;;;;5087678;28;20197;-76
2021/01/11 00:20:42;;;;;;;16.38;9.23;;;5.50;99.90;;;;;;5085769;28;20639;-76
2021/01/11 00:23:09;;;;;;;14.38;9.48;;;5.50;99.90;;;;;;5082909;28;20289;-76
2021/01/11 00:25:35;;;;;;;13.63;9.05;;;5.40;99.90;;;;;;5078657;28;20195;-79
2021/01/11 00:28:01;;;;;;;11.57;8.07;;;5.40;99.90;;;;;;5090688;28;20194;-77
2021/01/11 00:30:27;;;;;;;11.90;9.55;;;5.40;99.90;;;;;;5076626;28;20218;-77
2021/01/11 00:32:53;;;;;;;10.38;9.25;;;5.40;99.90;;;;;;5078058;28;20209;-77
2021/01/11 00:35:20;;;;;;;13.05;9.02;;;5.40;99.90;;;;;;5087750;28;20201;-77
2021/01/11 00:37:46;;;;;;;14.63;9.70;;;5.40;99.90;;;;;;5071488;28;20238;-77
2021/01/11 00:40:13;;;;;;;11.93;9.70;;;5.50;99.90;;;;;;5075148;28;20250;-77
2021/01/11 00:42:40;;;;;;;11.07;7.70;;;5.50;99.90;;;;;;5085197;28;20198;-78
2021/01/11 00:45:08;;;;;;;16.27;9.80;;;5.40;99.90;;;;;;5078495;28;20561;-77
2021/01/11 00:47:37;;;;;;;12.65;7.90;;;5.40;99.90;;;;;;5074422;28;20194;-78
2021/01/11 00:50:04;;;;;;;14.10;8.82;;;5.50;99.90;;;;;;5071943;28;20229;-76
2021/01/11 00:52:34;;;;;;;13.20;8.50;;;5.50;99.90;;;;;;5080226;28;20197;-76
2021/01/11 00:55:00;;;;;;;11.00;8.18;;;5.40;99.90;;;;;;5090191;28;20205;-76
2021/01/11 00:57:27;;;;;;;14.00;9.45;;;5.50;99.90;;;;;;5081489;28;20240;-76
2021/01/11 00:59:54;;;;;;;12.07;9.45;;;5.50;99.90;;;;;;5073179;28;20252;-77
2021/01/11 01:02:20;;;;;;;11.75;9.10;;;5.60;99.90;;;;;;5076707;28;20251;-76
2021/01/11 01:04:46;;;;;;;11.98;8.93;;;5.50;99.90;;;;;;5085746;28;20198;-76
2021/01/11 01:07:12;;;;;;;11.45;7.80;;;5.50;99.90;;;;;;5089802;28;20185;-77
2021/01/11 01:09:39;;;;;;;12.32;8.20;;;5.50;99.90;;;;;;5090802;28;20205;-78
2021/01/11 01:12:06;;;;;;;12.13;9.38;;;5.60;99.90;;;;;;5086409;28;20535;-77
2021/01/11 01:14:33;;;;;;;11.73;9.13;;;5.50;99.90;;;;;;5087233;28;20205;-78
2021/01/11 01:16:59;;;;;;;14.52;8.60;;;5.50;99.90;;;;;;5085853;28;20201;-77
2021/01/11 01:19:25;;;;;;;12.98;10.00;;;5.50;99.90;;;;;;5083133;28;20194;-77
2021/01/11 01:21:51;;;;;;;14.85;9.40;;;5.50;99.90;;;;;;5070951;28;20890;-77
2021/01/11 01:24:18;;;;;;;12.18;9.05;;;5.50;99.90;;;;;;5089539;28;20506;-77
2021/01/11 01:26:44;;;;;;;16.85;10.05;;;5.50;99.90;;;;;;5088263;28;20644;-77
2021/01/11 01:29:10;;;;;;;14.32;8.82;;;5.50;99.90;;;;;;5077956;28;20198;-77
2021/01/11 01:31:37;;;;;;;10.35;8.02;;;5.50;99.90;;;;;;5085537;28;20254;-78
2021/01/11 01:34:03;;;;;;;11.18;7.88;;;5.40;99.90;;;;;;5090574;28;20281;-78
2021/01/11 01:36:30;;;;;;;11.82;8.95;;;5.50;99.90;;;;;;5085371;28;20202;-79
2021/01/11 01:38:56;;;;;;;15.60;9.75;;;5.40;99.90;;;;;;5086153;28;20210;-79
2021/01/11 01:41:22;;;;;;;11.85;9.07;;;5.50;99.90;;;;;;5084775;28;20330;-79
2021/01/11 01:43:48;;;;;;;9.15;7.25;;;5.40;99.90;;;;;;5090269;28;20220;-79
2021/01/11 01:46:18;;;;;;;12.52;9.30;;;5.40;99.90;;;;;;5079161;28;20684;-79
2021/01/11 01:48:45;;;;;;;13.23;8.75;;;5.50;99.90;;;;;;5076587;28;20193;-79
2021/01/11 01:51:13;;;;;;;14.13;10.48;;;5.50;99.90;;;;;;5077058;28;20688;-79
2021/01/11 01:53:39;;;;;;;12.77;8.90;;;5.40;99.90;;;;;;5083825;28;20202;-79
2021/01/11 01:56:06;;;;;;;18.35;9.45;;;5.50;99.90;;;;;;5073742;28;20541;-79
2021/01/11 01:58:34;;;;;;;10.57;8.38;;;5.40;99.90;;;;;;5091412;28;20198;-79
2021/01/11 02:01:01;;;;;;;11.50;9.32;;;5.80;99.90;;;;;;5087798;28;20190;-78
2021/01/11 02:03:27;;;;;;;13.60;8.98;;;5.50;99.90;;;;;;5071921;28;20198;-79
2021/01/11 02:05:55;;;;;;;11.90;8.15;;;5.50;99.90;;;;;;5071381;28;20198;-79
2021/01/11 02:08:27;;;;;;;13.35;10.18;;;5.50;99.90;;;;;;5090996;28;20198;-78
2021/01/11 02:11:17;;;;;;;13.38;9.20;;;5.50;99.90;;;;;;5084493;28;20206;-77
2021/01/11 02:14:01;;;;;;;13.98;10.00;;;5.40;99.90;;;;;;5091465;28;20196;-76
2021/01/11 02:16:37;;;;;;;11.82;8.85;;;5.50;99.90;;;;;;5089772;28;20629;-76
2021/01/11 02:19:27;;;;;;;10.82;8.10;;;5.50;99.90;;;;;;5093554;28;20189;-77
2021/01/11 02:22:08;;;;;;;12.82;9.68;;;5.50;99.90;;;;;;5076002;28;20205;-76
2021/01/11 02:25:04;;;;;;;11.65;8.25;;;5.50;99.90;;;;;;5077534;28;20202;-76
2021/01/11 02:27:37;;;;;;;13.25;9.88;;;5.40;99.90;;;;;;5075976;28;20198;-77
2021/01/11 02:30:39;;;;;;;18.42;11.20;;;5.40;99.90;;;;;;5084624;28;20221;-77
2021/01/11 02:33:06;;;;;;;13.07;10.90;;;5.50;99.90;;;;;;4994282;28;20208;-76
2021/01/11 02:35:57;;;;;;;11.40;8.90;;;5.50;99.90;;;;;;5056929;28;20194;-77
2021/01/11 02:38:24;;;;;;;14.73;10.55;;;5.50;99.90;;;;;;5074279;28;20222;-77
2021/01/11 02:40:51;;;;;;;15.77;11.50;;;5.40;99.90;;;;;;5083948;28;20192;-76
2021/01/11 02:43:17;;;;;;;14.20;10.48;;;5.50;99.90;;;;;;5092435;28;20190;-76
2021/01/11 02:45:45;;;;;;;14.50;11.57;;;5.50;99.90;;;;;;5084231;28;20810;-77
2021/01/11 02:48:15;;;;;;;15.30;12.05;;;5.50;99.90;;;;;;5086234;28;20558;-77
2021/01/11 02:50:53;;;;;;;15.38;11.23;;;5.50;99.90;;;;;;5082481;28;20530;-78
2021/01/11 02:53:28;;;;;;;15.10;11.48;;;5.50;99.90;;;;;;5078839;28;20182;-77
2021/01/11 02:55:59;;;;;;;16.83;10.25;;;5.60;99.90;;;;;;5089659;28;20189;-77
2021/01/11 02:58:51;;;;;;;15.65;11.45;;;5.60;99.90;;;;;;5082863;28;20248;-77
2021/01/11 03:01:18;;;;;;;14.30;10.68;;;5.50;99.90;;;;;;5074107;28;20618;-77
2021/01/11 03:03:48;;;;;;;15.93;12.15;;;5.50;99.90;;;;;;5081842;28;20201;-78
2021/01/11 03:06:14;;;;;;;14.30;10.38;;;5.50;99.90;;;;;;5094117;28;20197;-78
2021/01/11 03:08:41;;;;;;;16.25;11.90;;;5.50;99.90;;;;;;5082858;28;20516;-78
2021/01/11 03:11:07;;;;;;;17.38;12.90;;;5.50;99.90;;;;;;5085081;28;20213;-77
2021/01/11 03:13:33;;;;;;;14.77;11.75;;;5.40;99.90;;;;;;5086145;28;20696;-77
2021/01/11 03:16:00;;;;;;;19.67;13.70;;;5.40;99.90;;;;;;5088963;28;20205;-78
2021/01/11 03:18:27;;;;;;;16.83;12.65;;;5.40;99.90;;;;;;5089883;28;20194;-78
2021/01/11 03:20:53;;;;;;;13.88;12.35;;;5.50;99.90;;;;;;5079016;28;20200;-78
2021/01/11 03:23:19;;;;;;;15.43;12.68;;;5.50;99.90;;;;;;5073381;28;20646;-78
2021/01/11 03:25:45;;;;;;;17.35;11.93;;;5.50;99.90;;;;;;5074600;28;20606;-78
2021/01/11 03:28:12;;;;;;;18.13;13.02;;;5.50;99.90;;;;;;5078564;28;20209;-78
2021/01/11 03:30:38;;;;;;;20.30;13.15;;;5.50;99.90;;;;;;5079833;28;20221;-78
2021/01/11 03:33:04;;;;;;;14.98;11.77;;;5.50;99.90;;;;;;5075998;28;20195;-78
2021/01/11 03:35:32;;;;;;;18.95;12.95;;;5.50;99.90;;;;;;5089575;28;20213;-77
2021/01/11 03:37:58;;;;;;;22.58;13.85;;;5.50;99.90;;;;;;5089512;28;20217;-78
2021/01/11 03:40:24;;;;;;;20.30;13.20;;;5.40;99.90;;;;;;5089428;28;20185;-78
2021/01/11 03:42:50;;;;;;;14.88;11.82;;;5.40;99.90;;;;;;5073358;28;20209;-78
2021/01/11 03:45:18;;;;;;;20.30;15.45;;;5.50;99.90;;;;;;5076374;28;20186;-78
2021/01/11 03:47:44;;;;;;;20.65;15.00;;;5.40;99.90;;;;;;5074278;28;20206;-78
2021/01/11 03:50:12;;;;;;;18.40;13.18;;;5.50;99.90;;;;;;5080114;28;20267;-78
2021/01/11 03:52:39;;;;;;;20.83;13.70;;;5.50;99.90;;;;;;5091542;28;20251;-78
2021/01/11 03:55:08;;;;;;;17.02;12.85;;;5.40;99.90;;;;;;5089633;28;20194;-77
2021/01/11 03:57:34;;;;;;;20.80;14.25;;;5.40;99.90;;;;;;5072948;28;20209;-76
2021/01/11 04:00:01;;;;;;;21.98;14.77;;;5.40;99.90;;;;;;5083414;28;20190;-77
2021/01/11 04:02:27;;;;;;;20.33;15.50;;;5.50;99.90;;;;;;5072673;28;20203;-76
2021/01/11 04:04:53;;;;;;;20.15;15.50;;;5.50;99.90;;;;;;5072640;28;20194;-76
2021/01/11 04:07:19;;;;;;;21.10;15.05;;;5.50;99.90;;;;;;5072522;28;20213;-79
2021/01/11 04:09:46;;;;;;;22.75;16.33;;;5.50;99.90;;;;;;5078086;28;20205;-78
2021/01/11 04:12:13;;;;;;;28.05;16.80;;;5.40;99.90;;;;;;5092747;28;20212;-76
2021/01/11 04:14:39;;;;;;;25.38;16.92;;;5.40;99.90;;;;;;5083150;28;20194;-77
2021/01/11 04:17:05;;;;;;;24.10;16.70;;;5.50;99.90;;;;;;5088174;28;20201;-76
2021/01/11 04:19:31;;;;;;;21.33;17.13;;;5.50;99.90;;;;;;5077710;28;20198;-76
2021/01/11 04:21:58;;;;;;;23.75;15.32;;;5.50;99.90;;;;;;5072559;28;20255;-77
2021/01/11 04:24:24;;;;;;;22.70;16.52;;;5.50;99.90;;;;;;5084753;28;20190;-77
2021/01/11 04:26:51;;;;;;;23.98;17.10;;;5.40;99.90;;;;;;5088233;28;20210;-77
2021/01/11 04:29:17;;;;;;;25.55;18.17;;;5.40;99.90;;;;;;5072286;28;20198;-78
2021/01/11 04:31:46;;;;;;;19.98;15.63;;;5.40;99.90;;;;;;5078739;28;20243;-78
2021/01/11 04:34:13;;;;;;;25.50;18.13;;;5.40;99.90;;;;;;5080689;28;20202;-80
2021/01/11 04:36:41;;;;;;;24.98;15.27;;;5.40;99.90;;;;;;5077937;28;20229;-78
2021/01/11 04:39:07;;;;;;;23.45;16.00;;;5.40;99.90;;;;;;5092294;28;20242;-78
2021/01/11 04:41:35;;;;;;;22.90;15.70;;;5.40;99.90;;;;;;5085377;28;20205;-78
2021/01/11 04:44:06;;;;;;;23.10;16.65;;;5.40;99.90;;;;;;5072401;28;20537;-78
2021/01/11 04:46:33;;;;;;;24.23;16.90;;;5.40;99.90;;;;;;5072156;28;20186;-78
2021/01/11 04:48:59;;;;;;;21.13;16.60;;;5.30;99.90;;;;;;5075372;28;20202;-77
2021/01/11 04:51:26;;;;;;;21.17;16.25;;;5.30;99.90;;;;;;5086241;28;20210;-76
2021/01/11 04:53:53;;;;;;;23.65;18.77;;;5.30;99.90;;;;;;5071773;28;20718;-77
2021/01/11 04:56:20;;;;;;;22.65;16.08;;;5.30;99.90;;;;;;5076569;28;20263;-77
2021/01/11 04:58:54;;;;;;;22.70;15.73;;;5.30;99.90;;;;;;5081422;28;20217;-77
2021/01/11 05:01:26;;;;;;;20.58;15.35;;;5.30;99.90;;;;;;5084646;28;20185;-77
2021/01/11 05:03:58;;;;;;;20.52;15.15;;;5.30;99.90;;;;;;5071764;28;20206;-77
2021/01/11 05:06:24;;;;;;;24.02;16.77;;;5.40;99.90;;;;;;5076151;28;20634;-78
2021/01/11 05:08:50;;;;;;;25.58;16.23;;;5.40;99.90;;;;;;5091136;28;20531;-79
2021/01/11 05:11:17;;;;;;;23.45;16.58;;;5.40;99.90;;;;;;5082911;28;20259;-79
2021/01/11 05:13:43;;;;;;;24.38;16.92;;;5.30;99.90;;;;;;5071632;28;20198;-79
2021/01/11 05:16:14;;;;;;;22.05;14.73;;;5.40;99.90;;;;;;5079791;28;20201;-79
2021/01/11 05:18:41;;;;;;;22.77;15.48;;;5.40;99.90;;;;;;5082314;28;20194;-79
2021/01/11 05:21:08;;;;;;;22.23;15.90;;;5.40;99.90;;;;;;5071760;28;20198;-78
2021/01/11 05:23:36;;;;;;;28.33;16.48;;;5.40;99.90;;;;;;5072035;28;20527;-78
2021/01/11 05:26:13;;;;;;;22.30;16.35;;;5.40;99.90;;;;;;5071943;28;20198;-79
2021/01/11 05:28:39;;;;;;;19.52;14.63;;;5.40;99.90;;;;;;5085232;28;20193;-80
2021/01/11 05:31:06;;;;;;;20.25;15.10;;;5.40;99.90;;;;;;5074890;28;20218;-79
2021/01/11 05:33:33;;;;;;;22.10;17.52;;;5.30;99.90;;;;;;5072407;28;20566;-79
2021/01/11 05:36:06;;;;;;;20.15;14.80;;;5.30;99.90;;;;;;5072688;28;20198;-79
2021/01/11 05:38:35;;;;;;;24.80;15.88;;;5.30;99.90;;;;;;5084008;28;20271;-78
2021/01/11 05:41:13;;;;;;;22.25;17.30;;;5.30;99.90;;;;;;5071688;28;20626;-78
2021/01/11 05:43:39;;;;;;;22.98;16.10;;;5.30;99.90;;;;;;5072169;28;20212;-77
2021/01/11 05:46:24;;;;;;;23.13;16.20;;;5.30;99.90;;;;;;5084368;28;20201;-77
2021/01/11 05:48:58;;;;;;;19.02;15.05;;;5.30;99.90;;;;;;5082806;28;20197;-77
2021/01/11 05:51:27;;;;;;;20.92;15.40;;;5.30;99.90;;;;;;5076265;28;20643;-77
2021/01/11 05:53:53;;;;;;;19.77;13.63;;;5.30;99.90;;;;;;5075160;28;20213;-78
2021/01/11 05:56:19;;;;;;;21.65;15.23;;;5.30;99.90;;;;;;5080158;28;20198;-78
2021/01/11 05:59:07;;;;;;;19.63;16.05;;;5.30;99.90;;;;;;5075712;28;20194;-76
2021/01/11 06:01:34;;;;;;;23.10;16.20;;;5.30;99.90;;;;;;5086287;28;20587;-77
2021/01/11 06:04:01;;;;;;;25.48;19.70;;;5.30;99.90;;;;;;5075012;28;20198;-77
2021/01/11 06:06:28;;;;;;;29.75;18.30;;;5.40;99.90;;;;;;5085227;28;20203;-77
2021/01/11 06:08:55;;;;;;;20.73;15.20;;;5.30;99.90;;;;;;5088222;28;20214;-77
2021/01/11 06:11:24;;;;;;;22.08;15.25;;;5.30;99.90;;;;;;5093775;28;20239;-77
2021/01/11 06:13:51;;;;;;;24.73;17.42;;;5.20;99.90;;;;;;5095350;28;20197;-77
2021/01/11 06:16:19;;;;;;;22.40;17.23;;;5.20;99.90;;;;;;5094766;28;20208;-76
2021/01/11 06:18:47;;;;;;;21.38;16.15;;;5.30;99.90;;;;;;5083509;28;20933;-77
2021/01/11 06:21:14;;;;;;;23.02;16.60;;;5.30;99.90;;;;;;5085686;28;20202;-76
2021/01/11 06:23:41;;;;;;;21.83;17.75;;;5.30;99.90;;;;;;5081858;28;20189;-76
2021/01/11 06:26:29;;;;;;;20.08;15.75;;;5.30;99.90;;;;;;5086422;28;20195;-76
2021/01/11 06:28:56;;;;;;;19.50;14.77;;;5.30;99.90;;;;;;5094514;28;20201;-76
2021/01/11 06:31:27;;;;;;;19.05;15.43;;;5.30;99.90;;;;;;5074581;28;20234;-77
2021/01/11 06:33:54;;;;;;;19.95;15.13;;;5.30;99.90;;;;;;5074639;28;20315;-77
2021/01/11 06:36:25;;;;;;;18.23;15.23;;;5.30;99.90;;;;;;5081782;28;20190;-77
2021/01/11 06:38:53;;;;;;;20.48;15.32;;;5.30;99.90;;;;;;5094994;28;20186;-77
2021/01/11 06:41:21;;;;;;;18.60;13.80;;;5.30;99.90;;;;;;5090537;28;20576;-77
2021/01/11 06:43:50;;;;;;;21.15;15.60;;;5.30;99.90;;;;;;5087906;28;20210;-76
2021/01/11 06:46:45;;;;;;;22.35;15.05;;;5.20;99.90;;;;;;5094549;28;20197;-78
2021/01/11 06:49:24;;;;;;;21.30;14.80;;;5.30;99.90;;;;;;5081288;28;20203;-78
2021/01/11 06:52:02;;;;;;;22.98;14.80;;;5.30;99.90;;;;;;5094175;28;20231;-77
2021/01/11 06:54:43;;;;;;;17.55;14.30;;;5.30;99.90;;;;;;5088442;28;20178;-77
2021/01/11 06:57:13;;;;;;;20.67;15.55;;;5.30;99.90;;;;;;5074245;28;20198;-77
2021/01/11 06:59:40;;;;;;;17.30;13.43;;;5.30;99.90;;;;;;5074524;28;20534;-77
2021/01/11 07:02:20;;;;;;;17.65;13.43;;;5.30;99.90;;;;;;5074070;28;20202;-77
2021/01/11 07:04:47;;;;;;;18.10;14.52;;;5.30;99.90;;;;;;5073718;28;20202;-77
2021/01/11 07:07:19;;;;;;;19.58;15.00;;;5.30;99.90;;;;;;5073751;28;20701;-76
2021/01/11 07:09:55;;;;;;;18.15;13.93;;;5.30;99.90;;;;;;5078363;28;20203;-77
2021/01/11 07:12:22;;;;;;;19.42;14.10;;;5.20;99.90;;;;;;5094445;28;20258;-77
2021/01/11 07:15:00;;;;;;;16.92;12.88;;;5.20;99.90;;;;;;5087865;28;20200;-77
2021/01/11 07:17:43;;;;;;;18.27;12.25;;;5.20;99.90;;;;;;5075739;28;20201;-77
2021/01/11 07:20:11;;;;;;;18.02;13.48;;;5.30;99.90;;;;;;5077343;28;20186;-79
2021/01/11 07:22:40;;;;;;;16.65;11.63;;;5.20;99.90;;;;;;5087073;28;20205;-79
2021/01/11 07:25:09;;;;;;;16.55;13.38;;;5.30;99.90;;;;;;5093646;28;20201;-79
2021/01/11 07:27:35;;;;;;;17.83;12.68;;;5.30;99.90;;;;;;5093831;28;20202;-79
2021/01/11 07:30:01;;;;;;;15.98;12.60;;;5.20;99.90;;;;;;5087058;28;20214;-79
2021/01/11 07:32:31;;;;;;;15.20;11.95;;;5.20;99.90;;;;;;5079530;28;20203;-79
2021/01/11 07:35:01;;;;;;;14.68;10.65;;;5.20;99.90;;;;;;5077747;28;20194;-76
2021/01/11 07:37:27;;;;;;;16.83;12.15;;;5.30;99.90;;;;;;5072530;28;20234;-78
2021/01/11 07:39:54;;;;;;;15.35;12.25;;;5.30;99.90;;;;;;5072932;28;20793;-77
2021/01/11 07:42:21;;;;;;;16.65;12.40;;;5.30;99.90;;;;;;5073183;28;20195;-78
2021/01/11 07:44:47;;;;;;;19.85;13.85;;;5.30;99.90;;;;;;5074710;28;20186;-78
2021/01/11 07:47:15;;;;;;;16.75;12.52;;;5.20;99.90;;;;;;5091798;28;20200;-77
2021/01/11 07:49:43;;;;;;;19.02;13.00;;;5.20;99.90;;;;;;5091943;28;20190;-79
2021/01/11 07:52:12;;;;;;;14.98;11.07;;;5.20;99.90;;;;;;5092759;28;20197;-78
2021/01/11 07:54:39;;;;;;;15.35;10.90;;;5.20;99.90;;;;;;5092076;28;20209;-77
2021/01/11 07:57:09;;;;;;;17.50;12.20;;;5.20;99.90;;;;;;5093253;28;20564;-76
2021/01/11 07:59:37;;;;;;;16.85;12.75;;;5.20;99.90;;;;;;5090199;28;20269;-79
2021/01/11 08:02:09;;;;;;;16.00;12.40;;;5.20;99.90;;;;;;5075273;28;20213;-80
2021/01/11 08:04:36;;;;;;;17.67;13.05;;;5.20;99.90;;;;;;5076382;28;20194;-80
2021/01/11 08:07:06;;;;;;;13.10;11.63;;;5.20;99.90;;;;;;5092516;28;20232;-80
2021/01/11 08:09:33;;;;;;;16.20;11.68;;;5.20;99.90;;;;;;5090317;28;20209;-79
2021/01/11 08:12:11;;;;;;;17.70;12.23;;;5.20;99.90;;;;;;5084665;28;20544;-79
2021/01/11 08:14:40;;;;;;;16.35;12.68;;;5.30;99.90;;;;;;5084469;28;20637;-78
2021/01/11 08:17:11;;;;;;;19.33;11.93;;;5.20;99.90;;;;;;5092548;28;20202;-78
2021/01/11 08:19:40;;;;;;;13.77;10.88;;;5.30;99.90;;;;;;5090302;28;20189;-78
2021/01/11 08:22:07;;;;;;;13.90;11.32;;;5.30;99.90;;;;;;5089771;28;20205;-78
2021/01/11 08:24:34;;;;;;;16.63;13.05;;;5.30;99.90;;;;;;5073078;28;20205;-79
2021/01/11 08:27:06;;;;;;;15.68;11.50;;;5.30;99.90;;;;;;5072629;28;20213;-79
2021/01/11 08:29:36;;;;;;;16.23;11.65;;;5.30;99.90;;;;;;5072837;28;20201;-78
2021/01/11 08:32:06;;;;;;;15.32;10.70;;;5.30;99.90;;;;;;5085631;28;20206;-78
2021/01/11 08:34:33;;;;;;;18.23;12.00;;;5.30;99.90;;;;;;5091008;28;20205;-78
2021/01/11 08:37:00;;;;;;;14.70;11.13;;;5.30;99.90;;;;;;5092127;28;20244;-77
2021/01/11 08:39:26;;;;;;;14.82;12.05;;;5.30;99.90;;;;;;5078643;28;20202;-76
2021/01/11 08:41:54;;;;;;;18.77;11.07;;;5.20;99.90;;;;;;5072387;28;20198;-76
2021/01/11 08:44:25;;;;;;;17.85;11.68;;;5.30;99.90;;;;;;5091392;28;20209;-76
2021/01/11 08:47:02;;;;;;;16.60;12.80;;;5.20;99.90;;;;;;5079115;28;20688;-84
2021/01/11 08:49:30;;;;;;;14.52;10.38;;;5.20;99.90;;;;;;5093500;28;20196;-85
2021/01/11 08:52:10;;;;;;;15.35;11.70;;;5.30;99.90;;;;;;5078205;28;20267;-84
2021/01/11 08:54:37;;;;;;;14.77;10.80;;;5.30;99.90;;;;;;5082788;28;20624;-84
2021/01/11 08:57:12;;;;;;;16.90;12.10;;;5.20;99.90;;;;;;5082055;28;20202;-84
2021/01/11 08:59:50;;;;;;;19.20;12.77;;;5.20;99.90;;;;;;5083673;28;20186;-83
2021/01/11 09:02:27;;;;;;;13.40;10.63;;;5.20;99.90;;;;;;5072172;28;20174;-84
2021/01/11 09:04:54;;;;;;;15.57;11.63;;;5.30;99.90;;;;;;5075861;28;20194;-83
2021/01/11 09:07:29;;;;;;;16.73;12.18;;;5.20;99.90;;;;;;5077280;28;20246;-83
2021/01/11 09:09:55;;;;;;;17.80;11.70;;;5.20;99.90;;;;;;5090766;28;20201;-83
2021/01/11 09:12:30;;;;;;;15.88;10.52;;;5.20;99.90;;;;;;5092088;28;20189;-83
2021/01/11 09:14:57;;;;;;;16.90;12.73;;;5.30;99.90;;;;;;5084455;28;20189;-83
2021/01/11 09:17:31;;;;;;;18.65;11.90;;;5.30;99.90;;;;;;5078404;28;20198;-84
2021/01/11 09:20:01;;;;;;;15.73;10.98;;;5.30;99.90;;;;;;5072163;28;20244;-83
2021/01/11 09:22:36;;;;;;;12.25;10.20;;;5.40;99.90;;;;;;5074788;28;20201;-82
2021/01/11 09:25:08;;;;;;;14.85;9.73;;;5.30;99.90;;;;;;5084500;28;20190;-82
2021/01/11 09:27:35;;;;;;;17.67;11.50;;;5.30;99.90;;;;;;5075812;28;20190;-83
2021/01/11 09:30:02;;;;;;;13.00;9.68;;;5.30;99.90;;;;;;5075597;28;20217;-84
2021/01/11 09:32:28;;;;;;;15.35;11.07;;;5.30;99.90;;;;;;5097113;28;20205;-79
2021/01/11 09:34:54;;;;;;;12.70;10.30;;;5.30;99.90;;;;;;5083496;28;20209;-79
2021/01/11 09:37:22;;;;;;;14.80;10.40;;;5.20;99.90;;;;;;5079725;28;20271;-80
2021/01/11 09:39:48;;;;;;;12.77;10.35;;;5.20;99.90;;;;;;5086928;28;20208;-77
2021/01/11 09:42:14;;;;;;;15.65;10.77;;;5.30;99.90;;;;;;5075377;28;20190;-81
2021/01/11 09:44:41;;;;;;;15.05;10.00;;;5.30;99.90;;;;;;5077401;28;20205;-80
2021/01/11 09:47:08;;;;;;;16.15;10.57;;;5.30;99.90;;;;;;5080915;28;20221;-81
2021/01/11 09:49:34;;;;;;;13.85;11.18;;;5.30;99.90;;;;;;5082980;28;20538;-82
2021/01/11 09:52:00;;;;;;;16.88;10.98;;;5.30;99.90;;;;;;5092093;28;20214;-83
2021/01/11 09:54:28;;;;;;;13.32;10.48;;;5.30;99.90;;;;;;5075458;28;20550;-81
2021/01/11 09:56:57;;;;;;;9.32;8.35;;;5.30;99.90;;;;;;5077021;28;20374;-82
2021/01/11 09:59:24;;;;;;;10.45;9.35;;;5.30;99.90;;;;;;5074608;28;20198;-82
2021/01/11 10:01:50;;;;;;;12.85;9.23;;;5.30;99.90;;;;;;5075367;28;20199;-82
2021/01/11 10:04:18;;;;;;;10.85;9.45;;;5.20;99.90;;;;;;5074704;28;20198;-81
2021/01/11 10:06:46;;;;;;;16.58;10.85;;;5.30;99.90;;;;;;5080053;28;20202;-81
2021/01/11 10:09:14;;;;;;;18.35;11.32;;;5.30;99.90;;;;;;5075914;28;20201;-82
2021/01/11 10:11:44;;;;;;;14.23;9.15;;;5.20;99.90;;;;;;5083077;28;20209;-81
2021/01/11 10:14:11;;;;;;;15.20;10.90;;;5.30;99.90;;;;;;5092377;28;20194;-81
2021/01/11 10:16:39;;;;;;;16.33;10.45;;;5.20;99.90;;;;;;5080810;28;20197;-81
2021/01/11 10:19:06;;;;;;;13.93;9.77;;;5.20;99.90;;;;;;5085703;28;20202;-81
2021/01/11 10:21:32;;;;;;;11.80;9.15;;;5.20;99.90;;;;;;5074936;28;20206;-81
2021/01/11 10:23:58;;;;;;;14.68;9.75;;;5.30;99.90;;;;;;5074730;28;20561;-80
2021/01/11 10:26:24;;;;;;;15.88;11.40;;;5.20;99.90;;;;;;5077286;28;20206;-82
2021/01/11 10:28:52;;;;;;;12.00;10.00;;;5.20;99.90;;;;;;5092073;28;20197;-82
2021/01/11 10:31:20;;;;;;;11.93;9.63;;;5.20;99.90;;;;;;5075146;28;20218;-83
2021/01/11 10:33:47;;;;;;;16.50;10.98;;;5.30;99.90;;;;;;5073500;28;20638;-76
2021/01/11 10:36:14;;;;;;;11.27;9.00;;;5.30;99.90;;;;;;5088822;28;20201;-78
2021/01/11 10:38:41;;;;;;;14.07;10.30;;;5.30;99.90;;;;;;5091395;28;20222;-79
2021/01/11 10:41:07;;;;;;;13.05;8.30;;;5.30;99.90;;;;;;5079070;28;20243;-78
2021/01/11 10:43:34;;;;;;;12.70;8.40;;;5.30;99.90;;;;;;5074064;28;20622;-78
2021/01/11 10:46:01;;;;;;;15.48;9.50;;;5.30;99.90;;;;;;5074214;28;20794;-78
2021/01/11 10:48:28;;;;;;;17.83;9.27;;;5.30;99.90;;;;;;5091201;28;20194;-78
2021/01/11 10:50:54;;;;;;;13.90;9.07;;;5.30;99.90;;;;;;5080106;28;20233;-77
2021/01/11 10:53:21;;;;;;;12.95;9.63;;;5.30;99.90;;;;;;5079548;28;20227;-77
2021/01/11 10:55:47;;;;;;;11.05;8.90;;;5.30;99.90;;;;;;5083383;28;20206;-78
2021/01/11 10:58:13;;;;;;;14.55;9.50;;;5.30;99.90;;;;;;5074106;28;20215;-78
2021/01/11 11:00:39;;;;;;;12.75;9.20;;;5.30;99.90;;;;;;5077350;28;20198;-78
2021/01/11 11:03:08;;;;;;;12.50;9.10;;;5.30;99.90;;;;;;5090907;28;20205;-78
2021/01/11 11:05:34;;;;;;;12.57;10.00;;;5.30;99.90;;;;;;5081743;28;20194;-77
2021/01/11 11:08:00;;;;;;;11.35;9.30;;;5.40;99.90;;;;;;5079649;28;20252;-78
2021/01/11 11:10:27;;;;;;;11.93;8.70;;;5.30;99.90;;;;;;5079223;28;20221;-78
2021/01/11 11:12:53;;;;;;;11.00;9.35;;;5.40;99.90;;;;;;5092933;28;20209;-78
2021/01/11 11:15:19;;;;;;;12.95;8.63;;;5.30;99.90;;;;;;5074478;28;20677;-78
2021/01/11 11:17:45;;;;;;;12.07;9.48;;;5.30;99.90;;;;;;5085944;28;20197;-78
2021/01/11 11:20:13;;;;;;;14.50;9.65;;;5.40;99.90;;;;;;5078948;28;20212;-78
2021/01/11 11:22:40;;;;;;;13.55;8.07;;;5.30;99.90;;;;;;5073494;28;20202;-78
2021/01/11 11:25:07;;;;;;;8.27;7.28;;;5.30;99.90;;;;;;5073880;28;20194;-78
2021/01/11 11:27:34;;;;;;;10.73;7.57;;;5.30;99.90;;;;;;5082934;28;20189;-77
2021/01/11 11:30:01;;;;;;;7.90;6.75;;;5.30;99.90;;;;;;5090322;28;20209;-78
2021/01/11 11:32:29;;;;;;;8.88;6.93;;;5.40;99.90;;;;;;5093322;28;20197;-78
2021/01/11 11:34:55;;;;;;;11.65;8.30;;;5.40;99.90;;;;;;5093777;28;20228;-78
2021/01/11 11:37:23;;;;;;;10.15;8.32;;;5.40;99.90;;;;;;5084998;28;20225;-77
2021/01/11 11:39:49;;;;;;;11.05;7.80;;;5.40;99.90;;;;;;5081013;28;20635;-78
2021/01/11 11:42:15;;;;;;;10.70;7.65;;;5.40;99.90;;;;;;5089896;28;20630;-77
2021/01/11 11:44:41;;;;;;;12.30;8.52;;;5.40;99.90;;;;;;5090502;28;20654;-77
2021/01/11 11:47:08;;;;;;;7.15;6.43;;;5.40;99.90;;;;;;5086012;28;20539;-76
2021/01/11 11:49:34;;;;;;;11.48;7.60;;;5.40;99.90;;;;;;5079602;28;20212;-75
2021/01/11 11:52:01;;;;;;;11.73;7.90;;;5.40;99.90;;;;;;5090154;28;20266;-79
2021/01/11 11:54:29;;;;;;;10.63;7.22;;;5.40;99.90;;;;;;5092844;28;20204;-78
2021/01/11 11:56:56;;;;;;;12.68;7.80;;;5.40;99.90;;;;;;5084120;28;20263;-78
2021/01/11 11:59:22;;;;;;;9.05;7.68;;;5.40;99.90;;;;;;5087008;28;20212;-77
2021/01/11 12:01:49;;;;;;;10.32;7.03;;;5.40;99.90;;;;;;5090182;28;20201;-80
2021/01/11 12:04:16;;;;;;;9.73;8.73;;;5.40;99.90;;;;;;5088265;28;20281;-77
2021/01/11 12:06:44;;;;;;;9.23;7.00;;;5.40;99.90;;;;;;5073373;28;20255;-79
2021/01/11 12:09:11;;;;;;;9.23;7.40;;;5.40;99.90;;;;;;5085169;28;20212;-77
2021/01/11 12:11:43;;;;;;;7.72;6.40;;;5.40;99.90;;;;;;5091682;28;20224;-79
2021/01/11 12:14:10;;;;;;;9.80;7.63;;;5.40;99.90;;;;;;5091513;28;20548;-80
2021/01/11 12:16:37;;;;;;;10.63;7.18;;;5.40;99.90;;;;;;5082507;28;20272;-79
2021/01/11 12:19:04;;;;;;;8.40;6.47;;;5.40;99.90;;;;;;5089611;28;20288;-79
2021/01/11 12:21:31;;;;;;;10.32;7.30;;;5.40;99.90;;;;;;5085697;28;20197;-81
2021/01/11 12:23:58;;;;;;;9.73;7.00;;;5.40;99.90;;;;;;5076419;28;20213;-80
2021/01/11 12:26:24;;;;;;;11.35;7.53;;;5.60;99.90;;;;;;5076895;28;20193;-85
2021/01/11 12:28:52;;;;;;;9.00;6.15;;;5.40;99.90;;;;;;5092366;28;20190;-84
2021/01/11 12:31:26;;;;;;;10.30;6.80;;;5.40;99.90;;;;;;5092593;28;20213;-85
2021/01/11 12:33:53;;;;;;;12.48;7.40;;;5.90;99.90;;;;;;5081859;28;20197;-85
2021/01/11 12:36:22;;;;;;;7.38;6.60;;;5.40;99.90;;;;;;5077664;28;20244;-79
2021/01/11 12:38:49;;;;;;;11.75;6.63;;;6.30;99.90;;;;;;5086689;28;20197;-79
2021/01/11 12:41:17;;;;;;;8.13;6.32;;;5.50;99.90;;;;;;5085992;28;20193;-84
2021/01/11 12:43:44;;;;;;;8.75;6.28;;;5.50;99.90;;;;;;5075675;28;20201;-77
2021/01/11 12:46:12;;;;;;;7.80;5.70;;;5.40;99.90;;;;;;5079279;28;20242;-80
2021/01/11 12:48:38;;;;;;;8.40;6.53;;;5.40;99.90;;;;;;5077073;28;20247;-82